Aviation Digital Data Service (ADDS)

Output produced by METARs form (0424 UTC 26 June 2019)
found at http://www.aviationweather.gov/metar/data/
 
Forecast for: NSTU (PAGO PAGO , WS)
Text: NSTU 260306Z 2603/2624 14015KT P6SM VCSH SCT020 SCT040
Forecast period: 0300 UTC 26 June 2019 to 0000 UTC 27 June 2019
Forecast type: FROM: standard forecast or significant change
Winds: from the SE (140 degrees) at 17 MPH (15 knots; 7.7 m/s)
Visibility: 6 or more miles 10+ km)
Ceiling: at least 12,000 feet AGL
Clouds: scattered clouds at 2000 feet AGL
scattered clouds at 4000 feet AGL
Weather: VCSH  (showers in vicinity)